Terminal Aerodrome Forecast
Issued by NWS Bismarck, ND

Home | Current Version | Previous Version | Text Only | Print | Product List | Glossary Off
Versions: 1 2 3 4 5 6 7 8 9 10 11 12 13 14 15

000
FTUS43 KBIS 081700
TAFISN
TAF
KISN 081725Z 0818/0918 30014KT P6SM SKC
     FM082000 30010KT 6SM FU FEW100
     FM090300 02005KT 5SM FU SKC=

USA.gov is the U.S. government's official web portal to all federal, state and local government web resources and services.